createdAt,value
2018-03-23T00:01:38.849Z,2.04
2018-03-23T00:04:08.327Z,2.08
2018-03-23T00:06:37.808Z,2.05
2018-03-23T00:09:06.978Z,2.08
2018-03-23T00:11:36.828Z,2.08
2018-03-23T00:14:06.287Z,2.11
2018-03-23T00:16:36.147Z,2.08
2018-03-23T00:19:05.620Z,2.11
2018-03-23T00:21:35.075Z,2.10
2018-03-23T00:24:04.510Z,2.19
2018-03-23T00:26:33.964Z,2.16
2018-03-23T00:29:03.096Z,2.13
2018-03-23T00:31:32.527Z,2.05
2018-03-23T00:34:02.384Z,2.09
2018-03-23T00:36:31.843Z,2.07
2018-03-23T00:39:01.682Z,2.04
2018-03-23T00:41:31.130Z,2.08
2018-03-23T00:44:00.580Z,2.11
2018-03-23T00:46:30.028Z,2.07
2018-03-23T00:48:59.694Z,2.13
2018-03-23T00:51:29.144Z,2.11
2018-03-23T00:53:58.603Z,2.14
2018-03-23T00:56:28.058Z,2.13
2018-03-23T00:58:57.510Z,2.09
2018-03-23T01:01:26.944Z,2.15
2018-03-23T01:03:56.192Z,2.18
2018-03-23T01:06:26.044Z,2.13
2018-03-23T01:08:56.066Z,2.21
2018-03-23T01:11:25.519Z,2.18
2018-03-23T01:13:54.949Z,2.15
2018-03-23T01:16:24.406Z,2.17
2018-03-23T01:18:54.051Z,2.10
2018-03-23T01:21:23.894Z,2.13
2018-03-23T01:23:53.342Z,2.04
2018-03-23T01:26:22.786Z,2.00
2018-03-23T01:28:52.238Z,2.08
2018-03-23T01:31:21.716Z,2.10
2018-03-23T01:33:51.175Z,2.14
2018-03-23T01:36:20.616Z,2.15
2018-03-23T01:38:50.103Z,2.11
2018-03-23T01:41:19.957Z,2.14
2018-03-23T01:43:49.214Z,2.15
2018-03-23T01:46:19.076Z,2.15
2018-03-23T01:48:48.743Z,2.23
2018-03-23T01:51:18.188Z,2.26
2018-03-23T01:53:47.642Z,2.27
2018-03-23T01:56:17.490Z,2.35
2018-03-23T01:58:46.604Z,2.37
2018-03-23T02:01:16.057Z,2.30
2018-03-23T02:03:45.918Z,2.27
2018-03-23T02:06:15.366Z,2.30
2018-03-23T02:08:45.218Z,2.32
2018-03-23T02:11:14.676Z,2.35
2018-03-23T02:13:44.133Z,2.28
2018-03-23T02:16:13.584Z,2.30
2018-03-23T02:18:43.019Z,2.31
2018-03-23T02:21:12.454Z,2.32
2018-03-23T02:23:41.930Z,2.35
2018-03-23T02:26:11.953Z,2.35
2018-03-23T02:28:41.404Z,2.41
2018-03-23T02:31:10.658Z,2.39
2018-03-23T02:33:40.102Z,2.30
2018-03-23T02:36:09.578Z,2.28
2018-03-23T02:38:39.212Z,2.31
2018-03-23T02:41:08.330Z,2.33
2018-03-23T02:43:37.791Z,2.32
2018-03-23T02:46:07.444Z,2.27
2018-03-23T02:48:36.892Z,2.34
2018-03-23T02:51:06.342Z,2.41
2018-03-23T02:53:35.790Z,2.37
2018-03-23T02:56:05.129Z,2.31
2018-03-23T02:58:34.590Z,2.29
2018-03-23T03:01:03.864Z,2.29
2018-03-23T03:03:33.316Z,2.27
2018-03-23T03:06:02.792Z,2.33
2018-03-23T03:08:32.644Z,2.36
2018-03-23T03:11:02.090Z,2.39
2018-03-23T03:13:31.549Z,2.35
2018-03-23T03:16:00.980Z,2.41
2018-03-23T03:18:30.256Z,2.41
2018-03-23T03:20:59.702Z,2.42
2018-03-23T03:23:29.146Z,2.44
2018-03-23T03:25:58.617Z,2.50
2018-03-23T03:28:28.067Z,2.47
2018-03-23T03:30:57.531Z,2.46
2018-03-23T03:33:27.385Z,2.44
2018-03-23T03:35:56.848Z,2.47
2018-03-23T03:38:26.485Z,2.43
2018-03-23T03:40:56.167Z,2.42
2018-03-23T03:43:26.019Z,2.42
2018-03-23T03:45:55.472Z,2.38
2018-03-23T03:48:24.932Z,2.40
2018-03-23T03:50:54.381Z,2.41
2018-03-23T03:53:23.834Z,2.47
2018-03-23T03:55:53.303Z,2.43
2018-03-23T03:58:23.140Z,2.46
2018-03-23T04:00:52.597Z,2.53
2018-03-23T04:03:22.055Z,2.54
2018-03-23T04:05:51.509Z,2.54
2018-03-23T04:08:20.954Z,2.57
2018-03-23T04:10:50.406Z,2.59
2018-03-23T04:13:19.863Z,2.59
2018-03-23T04:15:49.308Z,2.66
2018-03-23T04:18:18.755Z,2.58
2018-03-23T04:20:48.602Z,2.66
2018-03-23T04:23:18.067Z,2.72
2018-03-23T04:25:47.913Z,2.71
2018-03-23T04:28:17.363Z,2.77
2018-03-23T04:30:46.829Z,2.73
2018-03-23T04:33:16.339Z,2.80
2018-03-23T04:35:45.777Z,2.76
2018-03-23T04:38:15.261Z,2.72
2018-03-23T04:40:44.739Z,2.74
2018-03-23T04:43:14.177Z,2.72
2018-03-23T04:45:43.637Z,2.76
2018-03-23T04:48:13.481Z,2.75
2018-03-23T04:50:42.923Z,2.72
2018-03-23T04:53:12.396Z,2.70
2018-03-23T04:55:41.836Z,2.76
2018-03-23T04:58:11.295Z,2.75
2018-03-23T05:00:40.769Z,2.73
2018-03-23T05:03:10.610Z,2.64
2018-03-23T05:05:40.063Z,2.58
2018-03-23T05:08:09.523Z,2.61
2018-03-23T05:10:38.985Z,2.65
2018-03-23T05:13:08.852Z,2.65
2018-03-23T05:15:38.507Z,2.72
2018-03-23T05:18:08.673Z,2.69
2018-03-23T05:20:38.168Z,2.72
2018-03-23T05:23:07.621Z,2.71
2018-03-23T05:25:37.099Z,2.68
2018-03-23T05:28:06.519Z,2.69
2018-03-23T05:30:35.987Z,2.63
2018-03-23T05:33:05.437Z,2.59
2018-03-23T05:35:34.913Z,2.61
2018-03-23T05:38:04.367Z,2.63
2018-03-23T05:40:34.208Z,2.58
2018-03-23T05:43:03.659Z,2.52
2018-03-23T05:45:33.094Z,2.55
2018-03-23T05:48:02.571Z,2.61
2018-03-23T05:50:32.009Z,2.61
2018-03-23T05:53:03.154Z,2.61
2018-03-23T05:55:32.599Z,2.63
2018-03-23T05:58:02.047Z,2.64
2018-03-23T06:00:32.280Z,2.61
2018-03-23T06:03:01.923Z,2.65
2018-03-23T06:05:31.387Z,2.57
2018-03-23T06:08:01.057Z,2.64
2018-03-23T06:10:30.505Z,2.69
2018-03-23T06:13:00.376Z,2.73
2018-03-23T06:15:29.829Z,2.79
2018-03-23T06:18:00.232Z,2.76
2018-03-23T06:20:29.933Z,2.79
2018-03-23T06:22:59.391Z,2.78
2018-03-23T06:25:28.838Z,2.86
2018-03-23T06:27:58.299Z,2.92
2018-03-23T06:30:27.682Z,2.86
2018-03-23T06:32:57.145Z,2.89
2018-03-23T06:35:26.795Z,2.93
2018-03-23T06:37:56.631Z,2.95
2018-03-23T06:40:26.105Z,2.98
2018-03-23T06:42:56.520Z,3.06
2018-03-23T06:45:25.983Z,3.18
2018-03-23T06:47:55.441Z,3.19
2018-03-23T06:50:25.284Z,3.21
2018-03-23T06:52:54.735Z,3.21
2018-03-23T06:55:24.183Z,3.14
2018-03-23T06:57:53.443Z,3.17
2018-03-23T07:00:22.909Z,3.20
2018-03-23T07:02:52.383Z,3.27
2018-03-23T07:05:22.229Z,3.30
2018-03-23T07:07:51.671Z,3.31
2018-03-23T07:10:21.113Z,3.32
2018-03-23T07:12:50.615Z,3.43
2018-03-23T07:15:20.058Z,3.44
2018-03-23T07:17:49.504Z,3.41
2018-03-23T07:20:19.388Z,3.45
2018-03-23T07:22:48.565Z,3.51
2018-03-23T07:25:17.836Z,3.53
2018-03-23T07:27:47.300Z,3.52
2018-03-23T07:30:16.935Z,3.44
2018-03-23T07:32:46.768Z,3.48
2018-03-23T07:35:16.215Z,3.43
2018-03-23T07:37:45.707Z,3.42
2018-03-23T07:40:15.703Z,3.47
2018-03-23T07:42:45.186Z,3.52
2018-03-23T07:45:15.023Z,3.57
2018-03-23T07:47:44.675Z,3.60
2018-03-23T07:50:14.145Z,3.68
2018-03-23T07:52:43.605Z,3.69
2018-03-23T07:55:13.443Z,3.76
2018-03-23T07:57:43.125Z,3.75
2018-03-23T08:00:12.778Z,3.80
2018-03-23T08:02:42.239Z,3.97
2018-03-23T08:05:12.103Z,4.11
2018-03-23T08:07:41.767Z,4.09
2018-03-23T08:10:11.620Z,4.16
2018-03-23T08:12:41.094Z,4.16
2018-03-23T08:15:11.238Z,4.27
2018-03-23T08:17:40.683Z,4.26
2018-03-23T08:20:10.123Z,4.22
2018-03-23T08:22:39.583Z,4.34
2018-03-23T08:25:09.257Z,4.36
2018-03-23T08:27:38.699Z,4.42
2018-03-23T08:30:08.156Z,4.49
2018-03-23T08:32:37.594Z,4.32
2018-03-23T08:35:07.073Z,4.36
2018-03-23T08:37:36.515Z,4.50
2018-03-23T08:40:05.395Z,4.41
2018-03-23T08:42:34.868Z,4.58
2018-03-23T08:45:03.809Z,4.60
2018-03-23T08:47:34.137Z,4.63
2018-03-23T08:50:03.609Z,4.79
2018-03-23T08:52:33.075Z,4.88
2018-03-23T08:55:02.795Z,4.83
2018-03-23T08:57:33.623Z,4.90
2018-03-23T09:00:03.476Z,4.87
2018-03-23T09:02:32.935Z,4.88
2018-03-23T09:05:02.781Z,4.89
2018-03-23T09:07:32.235Z,4.92
2018-03-23T09:10:01.425Z,5.02
2018-03-23T09:12:30.877Z,5.00
2018-03-23T09:15:00.359Z,5.14
2018-03-23T09:17:30.207Z,5.12
2018-03-23T09:19:59.665Z,5.06
2018-03-23T09:22:29.147Z,5.18
2018-03-23T09:24:58.592Z,5.51
2018-03-23T09:27:28.628Z,5.76
2018-03-23T09:29:58.087Z,5.88
2018-03-23T09:32:27.544Z,6.05
2018-03-23T09:34:56.992Z,5.94
2018-03-23T09:37:26.464Z,6.01
2018-03-23T09:39:55.750Z,6.04
2018-03-23T09:42:25.194Z,5.96
2018-03-23T09:44:54.654Z,5.92
2018-03-23T09:47:24.110Z,5.76
2018-03-23T09:49:53.557Z,6.00
2018-03-23T09:52:23.258Z,6.25
2018-03-23T09:54:53.110Z,6.16
2018-03-23T09:57:22.585Z,6.30
2018-03-23T09:59:52.219Z,6.46
2018-03-23T10:02:21.676Z,6.66
2018-03-23T10:04:51.132Z,6.79
2018-03-23T10:07:20.598Z,6.94
2018-03-23T10:09:50.316Z,7.23
2018-03-23T10:12:19.924Z,7.53
2018-03-23T10:14:49.601Z,7.37
2018-03-23T10:17:19.070Z,7.19
2018-03-23T10:19:48.532Z,7.38
2018-03-23T10:22:18.385Z,7.36
2018-03-23T10:24:47.836Z,7.49
2018-03-23T10:27:17.285Z,7.50
2018-03-23T10:29:46.756Z,7.55
2018-03-23T10:32:16.608Z,7.65
2018-03-23T10:34:46.048Z,7.63
2018-03-23T10:37:15.300Z,7.59
2018-03-23T10:39:44.743Z,7.64
2018-03-23T10:42:14.218Z,7.39
2018-03-23T10:44:43.892Z,7.38
2018-03-23T10:47:13.771Z,7.51
2018-03-23T10:49:43.216Z,7.58
2018-03-23T10:52:13.069Z,7.44
2018-03-23T10:54:42.524Z,7.84
2018-03-23T10:57:11.989Z,8.25
2018-03-23T10:59:41.446Z,8.64
2018-03-23T11:02:12.896Z,8.63
2018-03-23T11:04:42.724Z,8.41
2018-03-23T11:07:12.759Z,8.43
2018-03-23T11:09:42.192Z,8.36
2018-03-23T11:12:11.700Z,8.02
2018-03-23T11:14:41.152Z,8.29
2018-03-23T11:17:10.598Z,8.46
2018-03-23T11:19:40.044Z,8.35
2018-03-23T11:22:09.895Z,8.55
2018-03-23T11:24:39.331Z,8.51
2018-03-23T11:27:08.448Z,8.52
2018-03-23T11:29:37.926Z,9.09
2018-03-23T11:32:07.390Z,9.53
2018-03-23T11:34:36.841Z,9.70
2018-03-23T11:37:06.285Z,9.93
2018-03-23T11:39:35.874Z,10.29
2018-03-23T11:42:05.722Z,9.77
2018-03-23T11:44:35.184Z,10.21
2018-03-23T11:47:04.625Z,10.51
2018-03-23T11:49:33.876Z,9.61
2018-03-23T11:52:03.350Z,9.48
2018-03-23T11:54:32.795Z,9.46
2018-03-23T11:57:02.267Z,8.78
2018-03-23T11:59:31.754Z,8.20
2018-03-23T12:02:00.923Z,8.49
2018-03-23T12:04:30.536Z,8.23
2018-03-23T12:07:00.402Z,8.47
2018-03-23T12:09:29.840Z,7.91
2018-03-23T12:11:59.704Z,7.66
2018-03-23T12:14:29.222Z,7.61
2018-03-23T12:16:59.214Z,7.49
2018-03-23T12:19:28.674Z,7.40
2018-03-23T12:21:58.127Z,7.35
2018-03-23T12:24:27.588Z,7.47
2018-03-23T12:26:57.439Z,7.66
2018-03-23T12:29:26.876Z,8.27
2018-03-23T12:31:56.336Z,9.07
2018-03-23T12:34:26.163Z,9.64
2018-03-23T12:36:55.608Z,10.11
2018-03-23T12:39:25.058Z,9.72
2018-03-23T12:41:54.266Z,9.87
2018-03-23T12:44:23.708Z,9.79
2018-03-23T12:46:53.150Z,9.57
2018-03-23T12:49:22.990Z,9.30
2018-03-23T12:51:52.424Z,9.17
2018-03-23T12:54:21.918Z,9.64
2018-03-23T12:56:51.366Z,9.74
2018-03-23T12:59:20.817Z,10.09
2018-03-23T13:01:50.266Z,10.31
2018-03-23T13:04:19.697Z,9.95
2018-03-23T13:06:49.774Z,10.20
2018-03-23T13:09:19.258Z,10.02
2018-03-23T13:11:48.716Z,10.71
2018-03-23T13:14:18.567Z,10.84
2018-03-23T13:16:48.022Z,11.19
2018-03-23T13:19:17.478Z,10.15
2018-03-23T13:21:46.924Z,9.53
2018-03-23T13:24:16.388Z,9.63
2018-03-23T13:26:45.820Z,9.74
2018-03-23T13:29:15.254Z,9.72
2018-03-23T13:31:45.100Z,10.28
2018-03-23T13:34:14.365Z,10.60
2018-03-23T13:36:44.226Z,10.63
2018-03-23T13:39:13.516Z,9.41
2018-03-23T13:41:42.976Z,9.48
2018-03-23T13:44:12.414Z,9.79
2018-03-23T13:46:41.884Z,9.95
2018-03-23T13:49:11.525Z,10.23
2018-03-23T13:51:40.983Z,10.69
2018-03-23T13:54:10.452Z,10.46
2018-03-23T13:56:39.896Z,10.25
2018-03-23T13:59:15.082Z,10.15
2018-03-23T14:01:44.609Z,10.13
2018-03-23T14:04:14.054Z,9.57
2018-03-23T14:06:43.314Z,9.73
2018-03-23T14:09:12.759Z,9.20
2018-03-23T14:11:42.080Z,9.27
2018-03-23T14:14:11.676Z,9.73
2018-03-23T14:16:41.508Z,10.22
2018-03-23T14:19:11.348Z,9.46
2018-03-23T14:21:40.788Z,9.06
2018-03-23T14:24:10.232Z,9.40
2018-03-23T14:26:40.074Z,9.60
2018-03-23T14:29:09.530Z,9.31
2018-03-23T14:31:39.395Z,9.16
2018-03-23T14:34:08.506Z,9.43
2018-03-23T14:36:38.084Z,9.46
2018-03-23T14:39:07.524Z,8.98
2018-03-23T14:41:36.982Z,8.70
2018-03-23T14:44:05.854Z,8.92
2018-03-23T14:46:35.366Z,9.01
2018-03-23T14:49:05.400Z,8.85
2018-03-23T14:51:34.856Z,8.89
2018-03-23T14:54:04.306Z,8.75
2018-03-23T14:56:33.956Z,8.45
2018-03-23T14:59:08.962Z,8.48
2018-03-23T15:01:38.416Z,8.56
2018-03-23T15:04:07.856Z,8.66
2018-03-23T15:06:37.393Z,8.76
2018-03-23T15:09:06.186Z,8.42
2018-03-23T15:11:35.619Z,8.68
2018-03-23T15:14:15.772Z,8.87
2018-03-23T15:16:44.994Z,8.84
2018-03-23T15:19:14.524Z,8.75
2018-03-23T15:21:44.026Z,9.16
2018-03-23T15:24:13.626Z,9.35
2018-03-23T15:26:43.095Z,9.06
2018-03-23T15:29:12.568Z,9.18
2018-03-23T15:31:42.088Z,9.36
2018-03-23T15:34:11.627Z,9.30
2018-03-23T15:36:41.562Z,8.62
2018-03-23T15:39:10.793Z,8.71
2018-03-23T15:41:40.230Z,8.73
2018-03-23T15:44:09.720Z,8.57
2018-03-23T15:46:39.214Z,8.69
2018-03-23T15:49:08.953Z,8.39
2018-03-23T15:51:38.820Z,8.37
2018-03-23T15:54:08.411Z,8.51
2018-03-23T15:56:37.856Z,8.62
2018-03-23T15:59:07.387Z,8.57
2018-03-23T16:01:37.230Z,8.47
2018-03-23T16:04:06.751Z,8.37
2018-03-23T16:06:36.245Z,8.53
2018-03-23T16:09:05.990Z,8.52
2018-03-23T16:11:35.512Z,8.48
2018-03-23T16:14:05.094Z,8.49
2018-03-23T16:16:34.747Z,8.29
2018-03-23T16:19:04.776Z,8.12
2018-03-23T16:21:34.357Z,8.14
2018-03-23T16:24:03.990Z,8.17
2018-03-23T16:26:33.565Z,8.11
2018-03-23T16:29:03.002Z,8.08
2018-03-23T16:31:32.835Z,8.00
2018-03-23T16:34:02.663Z,8.04
2018-03-23T16:36:32.187Z,8.05
2018-03-23T16:39:01.653Z,8.08
2018-03-23T16:41:31.719Z,8.00
2018-03-23T16:44:01.293Z,8.04
2018-03-23T16:46:30.785Z,8.00
2018-03-23T16:49:00.280Z,7.98
2018-03-23T16:51:29.974Z,7.86
2018-03-23T16:54:00.075Z,8.02
2018-03-23T16:56:30.154Z,7.87
2018-03-23T16:58:59.685Z,7.97
2018-03-23T17:01:29.277Z,8.12
2018-03-23T17:03:58.973Z,8.25
2018-03-23T17:06:28.680Z,8.21
2018-03-23T17:08:58.185Z,8.11
2018-03-23T17:11:27.655Z,8.08
2018-03-23T17:13:57.229Z,8.05
2018-03-23T17:16:26.711Z,8.22
2018-03-23T17:18:56.343Z,8.16
2018-03-23T17:21:25.976Z,8.07
2018-03-23T17:23:55.919Z,8.23
2018-03-23T17:26:26.571Z,8.09
2018-03-23T17:28:56.048Z,8.03
2018-03-23T17:31:26.098Z,7.92
2018-03-23T17:33:55.623Z,7.87
2018-03-23T17:36:25.478Z,7.68
2018-03-23T17:38:55.218Z,7.57
2018-03-23T17:41:25.525Z,7.54
2018-03-23T17:43:55.038Z,7.51
2018-03-23T17:46:25.137Z,7.37
2018-03-23T17:48:54.737Z,7.39
2018-03-23T17:51:24.085Z,7.20
2018-03-23T17:53:53.642Z,7.16
2018-03-23T17:56:23.168Z,7.06
2018-03-23T17:58:52.577Z,6.97
2018-03-23T18:01:22.339Z,6.86
2018-03-23T18:03:51.925Z,6.90
2018-03-23T18:06:21.746Z,6.83
2018-03-23T18:08:51.534Z,6.80
2018-03-23T18:11:21.343Z,6.91
2018-03-23T18:13:51.137Z,6.91
2018-03-23T18:16:20.721Z,6.72
2018-03-23T18:18:50.535Z,6.63
2018-03-23T18:21:20.717Z,6.53
2018-03-23T18:23:50.541Z,6.52
2018-03-23T18:26:20.161Z,6.36
2018-03-23T18:28:50.142Z,6.33
2018-03-23T18:31:19.795Z,6.19
2018-03-23T18:33:49.347Z,6.19
2018-03-23T18:36:20.303Z,6.20
2018-03-23T18:38:49.963Z,6.35
2018-03-23T18:41:19.783Z,6.26
2018-03-23T18:43:50.927Z,6.25
2018-03-23T18:46:20.937Z,6.33
2018-03-23T18:48:50.773Z,6.35
2018-03-23T18:51:20.993Z,6.28
2018-03-23T18:53:50.873Z,6.17
2018-03-23T18:56:20.959Z,6.12
2018-03-23T18:58:50.511Z,6.08
2018-03-23T19:01:20.262Z,5.95
2018-03-23T19:03:50.487Z,5.86
2018-03-23T19:06:20.113Z,5.84
2018-03-23T19:08:49.943Z,5.84
2018-03-23T19:11:19.586Z,5.82
2018-03-23T19:13:49.439Z,5.81
2018-03-23T19:16:19.275Z,5.71
2018-03-23T19:18:48.915Z,5.61
2018-03-23T19:21:18.550Z,5.73
2018-03-23T19:23:48.637Z,5.74
2018-03-23T19:26:18.905Z,5.82
2018-03-23T19:28:48.766Z,5.72
2018-03-23T19:31:19.221Z,5.59
2018-03-23T19:33:49.403Z,5.45
2018-03-23T19:36:19.069Z,5.42
2018-03-23T19:38:49.353Z,5.44
2018-03-23T19:41:19.409Z,5.37
2018-03-23T19:43:49.667Z,5.16
2018-03-23T19:46:19.175Z,5.09
2018-03-23T19:48:48.940Z,5.20
2018-03-23T19:51:18.720Z,5.12
2018-03-23T19:53:48.665Z,5.02
2018-03-23T19:56:17.861Z,4.90
2018-03-23T19:58:47.363Z,4.86
2018-03-23T20:01:17.123Z,4.74
2018-03-23T20:03:46.535Z,4.69
2018-03-23T20:06:16.153Z,4.58
2018-03-23T20:08:45.937Z,4.49
2018-03-23T20:11:15.589Z,4.37
2018-03-23T20:16:45.057Z,4.32
2018-03-23T20:19:14.933Z,4.35
2018-03-23T20:21:44.601Z,4.29
2018-03-23T20:24:19.437Z,4.37
2018-03-23T20:26:48.485Z,4.37
2018-03-23T20:29:18.419Z,4.43
2018-03-23T20:31:53.411Z,4.34
2018-03-23T20:34:22.867Z,4.38
2018-03-23T20:36:52.341Z,4.18
2018-03-23T20:39:21.819Z,4.26
2018-03-23T20:41:51.281Z,4.32
2018-03-23T20:44:20.735Z,4.23
2018-03-23T20:46:50.205Z,4.38
2018-03-23T20:49:19.701Z,4.35
2018-03-23T20:51:49.175Z,4.33
2018-03-23T20:54:18.633Z,4.22
2018-03-23T20:56:48.132Z,4.15
2018-03-23T20:59:17.397Z,4.05
2018-03-23T21:01:47.451Z,3.82
2018-03-23T21:04:16.961Z,3.78
2018-03-23T21:06:46.432Z,3.58
2018-03-23T21:09:16.307Z,3.51
2018-03-23T21:11:46.007Z,3.33
2018-03-23T21:14:15.349Z,3.20
2018-03-23T21:16:45.240Z,3.22
2018-03-23T21:19:14.912Z,3.22
2018-03-23T21:21:44.384Z,3.32
2018-03-23T21:24:14.251Z,3.41
2018-03-23T21:26:44.184Z,3.48
2018-03-23T21:29:13.710Z,3.44
2018-03-23T21:35:19.395Z,3.30
2018-03-23T21:37:49.550Z,3.54
2018-03-23T21:40:19.323Z,3.42
2018-03-23T21:42:49.076Z,3.25
2018-03-23T21:45:18.744Z,3.23
2018-03-23T21:47:48.938Z,3.15
2018-03-23T21:50:18.844Z,2.79
2018-03-23T21:52:48.476Z,2.57
2018-03-23T21:55:20.391Z,2.58
2018-03-23T21:57:55.573Z,2.50
2018-03-23T22:00:30.798Z,2.40
2018-03-23T22:03:00.664Z,2.27
2018-03-23T22:05:30.192Z,2.13
2018-03-23T22:07:59.789Z,2.00
2018-03-23T22:10:29.350Z,1.83
2018-03-23T22:12:58.836Z,1.68
2018-03-23T22:15:28.290Z,1.71
2018-03-23T22:17:57.758Z,1.71
2018-03-23T22:20:27.241Z,1.83
2018-03-23T22:22:56.706Z,1.92
2018-03-23T22:25:26.186Z,1.80
2018-03-23T22:27:55.892Z,1.69
2018-03-23T22:30:25.773Z,1.67
2018-03-23T22:32:55.620Z,1.49
2018-03-23T22:35:25.516Z,1.51
2018-03-23T22:37:54.992Z,1.43
2018-03-23T22:40:25.226Z,1.42
2018-03-23T22:42:54.680Z,1.40
2018-03-23T22:45:24.315Z,1.39
2018-03-23T22:47:53.828Z,1.41
2018-03-23T22:50:23.279Z,1.41
2018-03-23T22:52:52.728Z,1.43
2018-03-23T22:55:22.187Z,1.42
2018-03-23T22:57:51.646Z,1.47
2018-03-23T23:00:20.552Z,1.34
2018-03-23T23:02:50.012Z,1.31
2018-03-23T23:05:19.862Z,1.25
2018-03-23T23:07:49.340Z,1.10
2018-03-23T23:10:20.069Z,1.03
2018-03-23T23:12:49.932Z,1.08
2018-03-23T23:15:19.380Z,0.99
2018-03-23T23:17:49.240Z,0.99
2018-03-23T23:20:18.692Z,0.85
2018-03-23T23:22:48.562Z,0.94
2018-03-23T23:25:18.034Z,0.82
2018-03-23T23:27:47.494Z,0.79
2018-03-23T23:30:16.945Z,0.75
2018-03-23T23:32:46.414Z,0.74
2018-03-23T23:35:15.872Z,0.66
2018-03-23T23:37:45.364Z,0.63
2018-03-23T23:40:14.840Z,0.62
2018-03-23T23:42:44.684Z,0.64
2018-03-23T23:45:14.144Z,0.64
2018-03-23T23:47:43.600Z,0.59
2018-03-23T23:50:13.046Z,0.52
2018-03-23T23:52:42.528Z,0.51
2018-03-23T23:55:12.065Z,0.57
2018-03-23T23:57:41.506Z,0.54
